Time;durP1;ratioP1;P1;durP2;ratioP2;P2;SDS_P1;SDS_P2;PMS_P1;PMS_P2;Temp;Humidity;BMP_temperature;BMP_pressure;BME280_temperature;BME280_humidity;BME280_pressure;Samples;Min_cycle;Max_cycle;Signal;HPM_P1;HPM_P2
2021/04/26 00:01:37;;;;;;;6.27;2.80;;;9.70;72.10;;;;;;5032554;28;20518;-81
2021/04/26 00:04:04;;;;;;;8.07;3.20;;;9.70;72.40;;;;;;5021812;28;20435;-81
2021/04/26 00:06:30;;;;;;;5.27;2.47;;;9.60;72.80;;;;;;5016453;28;20446;-80
2021/04/26 00:08:57;;;;;;;5.37;2.40;;;9.60;73.20;;;;;;5032573;28;20588;-81
2021/04/26 00:11:24;;;;;;;5.93;2.90;;;9.50;73.60;;;;;;5036397;28;20512;-80
2021/04/26 00:13:50;;;;;;;6.10;2.30;;;9.40;73.90;;;;;;5050065;28;20516;-81
2021/04/26 00:16:17;;;;;;;9.43;2.80;;;9.30;74.10;;;;;;5059866;28;20453;-80
2021/04/26 00:18:43;;;;;;;6.13;3.00;;;9.40;74.60;;;;;;5044850;28;20505;-81
2021/04/26 00:21:09;;;;;;;6.60;2.53;;;9.40;74.70;;;;;;5042458;28;20562;-80
2021/04/26 00:23:36;;;;;;;7.33;2.77;;;9.30;75.00;;;;;;5030105;28;20561;-81
2021/04/26 00:26:03;;;;;;;5.83;2.50;;;9.30;75.30;;;;;;5016384;28;20541;-81
2021/04/26 00:28:29;;;;;;;6.03;2.33;;;9.30;74.90;;;;;;5041357;28;20898;-81
2021/04/26 00:30:56;;;;;;;6.40;3.10;;;9.60;71.90;;;;;;5035841;28;20500;-81
2021/04/26 00:33:23;;;;;;;5.47;3.03;;;9.70;70.60;;;;;;5035731;28;20508;-81
2021/04/26 00:35:49;;;;;;;5.23;2.43;;;9.60;70.50;;;;;;5036851;28;20499;-80
2021/04/26 00:38:15;;;;;;;5.97;3.03;;;9.70;70.60;;;;;;5016709;28;20481;-81
2021/04/26 00:40:42;;;;;;;7.43;2.83;;;9.70;70.70;;;;;;5017665;28;20482;-82
2021/04/26 00:43:09;;;;;;;7.03;3.30;;;9.70;71.00;;;;;;5034462;28;20502;-80
2021/04/26 00:45:35;;;;;;;6.77;2.93;;;9.70;71.20;;;;;;5022243;28;21119;-79
2021/04/26 00:48:02;;;;;;;12.23;2.90;;;9.70;71.20;;;;;;5016827;28;20498;-80
2021/04/26 00:50:31;;;;;;;7.70;2.90;;;9.70;71.30;;;;;;5017786;28;20520;-80
2021/04/26 00:52:59;;;;;;;6.53;2.63;;;9.70;71.50;;;;;;5017416;28;20510;-79
2021/04/26 00:55:28;;;;;;;7.90;3.77;;;9.70;72.50;;;;;;5017068;28;20479;-79
2021/04/26 00:57:55;;;;;;;6.27;2.43;;;9.60;72.10;;;;;;5034326;28;20842;-80
2021/04/26 01:00:23;;;;;;;5.17;2.60;;;9.50;72.60;;;;;;5037463;28;20517;-80
2021/04/26 01:02:50;;;;;;;5.70;3.00;;;9.50;73.40;;;;;;5037228;28;20964;-79
2021/04/26 01:05:19;;;;;;;7.80;3.27;;;9.30;73.70;;;;;;5024220;28;20459;-80
2021/04/26 01:07:46;;;;;;;8.13;3.10;;;9.30;74.40;;;;;;5017367;28;20972;-81
2021/04/26 01:10:15;;;;;;;6.63;3.20;;;9.30;74.50;;;;;;5027931;28;20454;-80
2021/04/26 01:13:09;;;;;;;8.33;3.17;;;9.00;74.30;;;;;;5031606;28;21169;-80
2021/04/26 01:15:42;;;;;;;7.60;3.50;;;9.30;75.20;;;;;;5012671;28;20471;-80
2021/04/26 01:18:14;;;;;;;9.87;4.17;;;9.30;75.50;;;;;;5023443;28;20417;-83
2021/04/26 01:21:18;;;;;;;5.60;2.87;;;9.30;75.60;;;;;;5033849;28;20502;-80
2021/04/26 01:24:16;;;;;;;5.67;3.27;;;9.20;75.90;;;;;;5035682;28;20504;-79
2021/04/26 01:27:05;;;;;;;10.53;3.50;;;9.30;76.50;;;;;;5011658;28;20458;-80
2021/04/26 01:29:48;;;;;;;6.70;3.40;;;9.20;77.00;;;;;;5026858;28;20486;-80
2021/04/26 01:32:26;;;;;;;6.20;2.70;;;9.00;77.20;;;;;;5043898;28;20436;-79
2021/04/26 01:34:53;;;;;;;5.57;2.87;;;9.10;77.60;;;;;;5043437;28;20449;-81
2021/04/26 01:37:20;;;;;;;8.43;3.73;;;9.00;77.90;;;;;;5037560;28;20465;-81
2021/04/26 01:39:49;;;;;;;6.37;3.40;;;9.10;79.20;;;;;;5038304;28;21154;-80
2021/04/26 01:42:17;;;;;;;6.30;3.30;;;8.90;78.60;;;;;;5036288;28;20553;-81
2021/04/26 01:44:44;;;;;;;6.97;3.03;;;8.70;79.60;;;;;;5037024;28;20457;-82
2021/04/26 01:47:11;;;;;;;7.37;4.03;;;8.90;79.70;;;;;;5022365;28;20550;-82
2021/04/26 01:49:40;;;;;;;7.57;3.57;;;8.90;80.20;;;;;;5016917;28;20482;-83
2021/04/26 01:52:08;;;;;;;7.53;3.83;;;8.70;80.40;;;;;;5029880;28;20517;-83
2021/04/26 01:54:35;;;;;;;7.23;3.83;;;8.70;80.40;;;;;;5036067;28;20485;-83
2021/04/26 01:57:03;;;;;;;8.07;4.23;;;8.70;80.70;;;;;;5032124;28;20453;-83
2021/04/26 01:59:32;;;;;;;9.73;3.90;;;8.80;81.10;;;;;;5035793;28;20458;-83
2021/04/26 02:01:59;;;;;;;7.63;3.93;;;8.50;80.70;;;;;;5022978;28;20528;-82
2021/04/26 02:04:28;;;;;;;8.27;3.90;;;8.50;80.90;;;;;;5014378;28;20475;-82
2021/04/26 02:06:56;;;;;;;7.43;3.60;;;8.90;81.50;;;;;;5035518;28;20522;-81
2021/04/26 02:09:24;;;;;;;6.13;3.70;;;8.80;81.50;;;;;;5036853;28;20484;-81
2021/04/26 02:11:51;;;;;;;7.80;4.13;;;8.80;81.50;;;;;;5039724;28;20470;-80
2021/04/26 02:14:18;;;;;;;7.70;4.63;;;8.90;82.10;;;;;;5025367;28;20554;-81
2021/04/26 02:16:45;;;;;;;7.53;4.60;;;8.70;82.20;;;;;;5034547;28;20484;-80
2021/04/26 02:19:12;;;;;;;8.87;4.50;;;8.70;82.30;;;;;;5034750;28;20536;-81
2021/04/26 02:21:40;;;;;;;7.57;4.17;;;8.60;82.40;;;;;;5023934;28;20556;-81
2021/04/26 02:24:09;;;;;;;10.33;4.20;;;8.50;82.50;;;;;;5015113;28;20451;-79
2021/04/26 02:26:35;;;;;;;9.90;4.97;;;8.70;83.10;;;;;;5024271;28;20824;-80
2021/04/26 02:29:02;;;;;;;6.20;4.40;;;8.60;83.20;;;;;;5040715;28;20580;-81
2021/04/26 02:31:33;;;;;;;6.90;4.27;;;8.50;83.30;;;;;;5028190;28;20447;-79
2021/04/26 02:34:05;;;;;;;7.93;4.43;;;8.80;83.80;;;;;;5013147;28;20558;-79
2021/04/26 02:36:36;;;;;;;8.20;4.33;;;8.60;84.70;;;;;;5018612;28;20453;-80
2021/04/26 02:39:06;;;;;;;9.57;4.23;;;8.80;85.10;;;;;;5030896;28;20454;-81
2021/04/26 02:41:36;;;;;;;6.23;4.20;;;8.70;85.10;;;;;;5046213;28;20514;-81
2021/04/26 02:44:06;;;;;;;12.37;4.60;;;8.70;85.00;;;;;;5031726;28;20457;-81
2021/04/26 02:46:35;;;;;;;15.80;5.20;;;8.70;84.60;;;;;;5026183;28;20562;-81
2021/04/26 02:49:03;;;;;;;10.63;4.43;;;8.70;85.00;;;;;;5014127;28;20486;-80
2021/04/26 02:51:33;;;;;;;7.40;3.93;;;8.80;85.10;;;;;;5028939;28;20570;-80
2021/04/26 02:54:01;;;;;;;7.37;4.30;;;8.40;85.00;;;;;;5016667;28;20454;-80
2021/04/26 02:56:28;;;;;;;8.73;4.50;;;8.60;85.40;;;;;;5020010;28;20809;-81
2021/04/26 02:58:57;;;;;;;9.43;5.03;;;8.60;85.10;;;;;;5053024;28;20477;-81
2021/04/26 03:01:24;;;;;;;8.17;5.30;;;8.60;85.30;;;;;;5041521;28;20534;-81
2021/04/26 03:03:52;;;;;;;7.20;5.10;;;8.60;85.70;;;;;;5013227;28;20485;-81
2021/04/26 03:06:19;;;;;;;8.07;4.97;;;8.60;86.80;;;;;;5016322;28;20561;-81
2021/04/26 03:08:47;;;;;;;5.80;4.10;;;8.20;87.50;;;;;;5026993;28;20569;-81
2021/04/26 03:11:15;;;;;;;10.37;4.90;;;8.40;87.90;;;;;;5013301;28;20451;-81
2021/04/26 03:13:42;;;;;;;9.80;4.70;;;8.40;88.10;;;;;;5017483;28;20447;-81
2021/04/26 03:16:11;;;;;;;10.70;5.60;;;8.40;87.50;;;;;;5045862;28;20481;-81
2021/04/26 03:18:39;;;;;;;8.60;5.30;;;8.50;87.80;;;;;;5015193;28;20486;-80
2021/04/26 03:21:08;;;;;;;11.10;4.67;;;8.40;87.80;;;;;;5016228;28;20454;-80
2021/04/26 03:23:36;;;;;;;9.80;4.77;;;8.40;87.80;;;;;;5036000;28;20483;-81
2021/04/26 03:26:03;;;;;;;8.70;4.77;;;8.20;87.00;;;;;;5030971;28;20542;-79
2021/04/26 03:28:30;;;;;;;8.70;5.10;;;8.30;87.30;;;;;;5032833;28;20566;-82
2021/04/26 03:30:58;;;;;;;10.73;5.63;;;8.20;87.60;;;;;;5046429;28;20454;-81
2021/04/26 03:33:26;;;;;;;9.77;5.60;;;8.40;88.10;;;;;;5014973;28;20466;-82
2021/04/26 03:35:55;;;;;;;8.17;5.47;;;8.10;87.60;;;;;;5016750;28;20468;-81
2021/04/26 03:38:22;;;;;;;11.07;5.60;;;8.20;87.70;;;;;;5032600;28;20561;-81
2021/04/26 03:40:49;;;;;;;13.87;5.40;;;8.10;88.00;;;;;;5030003;28;20517;-81
2021/04/26 03:43:17;;;;;;;8.83;5.57;;;8.00;87.80;;;;;;5013585;28;20477;-81
2021/04/26 03:45:44;;;;;;;9.10;5.30;;;8.20;87.70;;;;;;5024723;28;20871;-80
2021/04/26 03:48:10;;;;;;;11.40;5.73;;;8.10;87.00;;;;;;5033660;28;20481;-81
2021/04/26 03:50:37;;;;;;;10.07;5.27;;;7.90;87.40;;;;;;5019373;28;20466;-80
2021/04/26 03:53:04;;;;;;;9.40;5.90;;;7.80;87.80;;;;;;5013707;28;20483;-80
2021/04/26 03:55:31;;;;;;;9.00;4.90;;;7.90;88.10;;;;;;5026019;28;20537;-80
2021/04/26 03:57:57;;;;;;;9.37;5.60;;;8.00;87.90;;;;;;5035753;28;20456;-80
2021/04/26 04:00:25;;;;;;;10.10;5.43;;;8.00;87.70;;;;;;5027467;28;20545;-80
2021/04/26 04:02:51;;;;;;;7.63;4.90;;;8.00;87.90;;;;;;5017335;28;20660;-80
2021/04/26 04:05:18;;;;;;;11.47;5.53;;;7.90;87.50;;;;;;5024900;28;20526;-80
2021/04/26 04:07:46;;;;;;;8.03;4.60;;;8.00;88.30;;;;;;5036241;28;20454;-82
2021/04/26 04:10:14;;;;;;;11.40;5.37;;;7.90;87.30;;;;;;5016416;28;20455;-80
2021/04/26 04:12:41;;;;;;;11.63;5.10;;;7.80;88.20;;;;;;5016114;28;20509;-81
2021/04/26 04:15:09;;;;;;;7.30;5.10;;;7.70;87.90;;;;;;5049324;28;20519;-81
2021/04/26 04:17:35;;;;;;;8.60;4.47;;;7.60;88.00;;;;;;5054741;28;20453;-81
2021/04/26 04:20:02;;;;;;;10.87;6.27;;;7.60;87.70;;;;;;5037034;28;20916;-80
2021/04/26 04:22:28;;;;;;;10.13;4.77;;;7.80;87.70;;;;;;5020255;28;20479;-80
2021/04/26 04:24:56;;;;;;;9.43;5.80;;;7.70;86.20;;;;;;5029166;28;20495;-81
2021/04/26 04:27:22;;;;;;;8.60;4.87;;;7.90;87.10;;;;;;5041701;28;20595;-81
2021/04/26 04:29:48;;;;;;;7.30;4.83;;;7.90;85.60;;;;;;5044053;28;20489;-81
2021/04/26 04:32:15;;;;;;;6.90;4.53;;;7.70;84.60;;;;;;5038398;28;21166;-80
2021/04/26 04:34:41;;;;;;;7.80;5.40;;;7.60;84.80;;;;;;5042856;28;20457;-81
2021/04/26 04:37:07;;;;;;;10.20;4.45;;;7.80;84.90;;;;;;5042123;28;20545;-80
2021/04/26 04:39:34;;;;;;;8.83;4.07;;;7.70;84.30;;;;;;5041717;28;20195;-81
2021/04/26 04:42:01;;;;;;;12.83;6.40;;;7.50;84.20;;;;;;5041061;28;20474;-80
2021/04/26 04:44:27;;;;;;;9.50;4.80;;;7.50;83.90;;;;;;5044328;28;20473;-80
2021/04/26 04:46:54;;;;;;;7.47;5.20;;;7.50;83.70;;;;;;5043716;28;20458;-81
2021/04/26 04:49:20;;;;;;;9.07;4.90;;;7.60;82.90;;;;;;5039950;28;20485;-82
2021/04/26 04:51:46;;;;;;;6.50;3.90;;;7.50;83.00;;;;;;5026795;28;20488;-81
2021/04/26 04:54:13;;;;;;;7.83;4.70;;;7.60;83.00;;;;;;5030030;28;20574;-81
2021/04/26 04:56:39;;;;;;;7.83;4.57;;;7.60;83.40;;;;;;5020007;28;20458;-82
2021/04/26 04:59:06;;;;;;;6.63;4.40;;;7.50;83.70;;;;;;5035031;28;20484;-82
2021/04/26 05:01:33;;;;;;;7.87;5.13;;;7.50;83.60;;;;;;5025635;28;20542;-81
2021/04/26 05:04:01;;;;;;;9.67;4.57;;;7.50;84.30;;;;;;5015153;28;20512;-81
2021/04/26 05:06:28;;;;;;;9.77;4.45;;;7.30;85.20;;;;;;5027213;28;20517;-82
2021/04/26 05:08:55;;;;;;;6.40;4.57;;;7.50;86.60;;;;;;5033102;28;20223;-81
2021/04/26 05:11:22;;;;;;;6.80;4.30;;;7.30;86.20;;;;;;5027904;28;20525;-81
2021/04/26 05:13:49;;;;;;;10.93;5.63;;;7.40;86.80;;;;;;5023520;28;20579;-83
2021/04/26 05:16:16;;;;;;;15.52;5.00;;;7.40;86.90;;;;;;5050840;28;20482;-82
2021/04/26 05:18:42;;;;;;;9.43;5.43;;;7.70;87.20;;;;;;5036856;28;20282;-83
2021/04/26 05:21:09;;;;;;;9.07;5.32;;;7.60;86.10;;;;;;5059198;28;20465;-82
2021/04/26 05:23:35;;;;;;;8.43;4.57;;;7.60;86.40;;;;;;5044839;28;20230;-83
2021/04/26 05:26:02;;;;;;;8.80;4.90;;;7.70;87.00;;;;;;5037634;28;20806;-83
2021/04/26 05:28:28;;;;;;;8.80;4.60;;;7.60;87.80;;;;;;5058074;28;20570;-83
2021/04/26 05:30:54;;;;;;;7.93;4.90;;;7.70;87.50;;;;;;5068946;28;20464;-80
2021/04/26 05:33:22;;;;;;;10.33;4.50;;;7.80;87.10;;;;;;5052922;28;20481;-81
2021/04/26 05:35:48;;;;;;;10.07;5.50;;;7.70;87.10;;;;;;5040779;28;20442;-82
2021/04/26 05:38:18;;;;;;;14.87;4.90;;;7.60;87.80;;;;;;5037510;28;20572;-79
2021/04/26 05:40:47;;;;;;;12.77;5.13;;;7.40;87.40;;;;;;5035297;28;20573;-81
2021/04/26 05:43:14;;;;;;;9.00;4.30;;;7.70;88.20;;;;;;5038113;28;20251;-81
2021/04/26 05:45:41;;;;;;;13.00;5.47;;;7.60;87.00;;;;;;5039656;28;20454;-82
2021/04/26 05:48:08;;;;;;;8.37;4.93;;;7.70;86.40;;;;;;5037921;28;20484;-81
2021/04/26 05:50:36;;;;;;;10.77;4.90;;;7.60;86.50;;;;;;5035919;28;20968;-81
2021/04/26 05:53:03;;;;;;;10.32;5.43;;;7.80;86.60;;;;;;5037352;28;20576;-81
2021/04/26 05:55:30;;;;;;;9.63;5.30;;;7.80;86.40;;;;;;5038391;28;20278;-82
2021/04/26 05:57:56;;;;;;;8.33;5.53;;;7.80;85.80;;;;;;5032980;28;20503;-82
2021/04/26 06:00:23;;;;;;;16.13;5.80;;;7.90;86.00;;;;;;5045340;28;20556;-82
2021/04/26 06:02:49;;;;;;;10.37;4.70;;;8.00;85.80;;;;;;5047947;28;20497;-83
2021/04/26 06:05:16;;;;;;;8.37;5.40;;;7.80;83.70;;;;;;5046523;28;20548;-82
2021/04/26 06:07:43;;;;;;;11.00;4.17;;;7.90;84.70;;;;;;5034241;28;20457;-81
2021/04/26 06:10:10;;;;;;;7.37;4.80;;;7.90;84.00;;;;;;5038436;28;20977;-81
2021/04/26 06:12:36;;;;;;;9.70;5.53;;;8.10;83.80;;;;;;5028388;28;20893;-81
2021/04/26 06:15:04;;;;;;;10.27;4.77;;;7.90;83.80;;;;;;5043224;28;20496;-81
2021/04/26 06:17:30;;;;;;;9.13;4.50;;;7.90;82.60;;;;;;5018938;28;20997;-81
2021/04/26 06:19:57;;;;;;;11.93;5.70;;;8.10;82.60;;;;;;5013616;28;20971;-82
2021/04/26 06:22:23;;;;;;;11.17;5.00;;;8.00;83.00;;;;;;5017079;28;20545;-81
2021/04/26 06:24:50;;;;;;;8.50;5.33;;;8.30;82.40;;;;;;5024025;28;20513;-82
2021/04/26 06:27:17;;;;;;;9.10;4.93;;;8.30;81.60;;;;;;5035396;28;20897;-83
2021/04/26 06:29:43;;;;;;;9.93;5.30;;;8.10;81.30;;;;;;5046823;28;21018;-81
2021/04/26 06:32:10;;;;;;;9.93;5.10;;;8.30;81.90;;;;;;5052339;28;20443;-83
2021/04/26 06:34:36;;;;;;;8.97;4.77;;;8.20;82.20;;;;;;5030941;28;20454;-83
2021/04/26 06:37:03;;;;;;;8.40;4.80;;;8.30;81.80;;;;;;5033799;28;20456;-84
2021/04/26 06:39:29;;;;;;;8.47;5.17;;;8.40;81.70;;;;;;5036234;28;20576;-83
2021/04/26 06:41:57;;;;;;;8.93;5.57;;;8.30;81.40;;;;;;5037757;28;20523;-82
2021/04/26 06:44:23;;;;;;;11.53;5.03;;;8.40;81.50;;;;;;5021681;28;20517;-83
2021/04/26 06:46:50;;;;;;;13.07;5.03;;;8.40;80.70;;;;;;5014618;28;20425;-82
2021/04/26 06:49:19;;;;;;;13.97;6.33;;;8.60;80.90;;;;;;5033936;28;20489;-83
2021/04/26 06:51:46;;;;;;;11.90;4.50;;;8.40;81.10;;;;;;5031459;28;20549;-84
2021/04/26 06:54:12;;;;;;;11.27;5.40;;;8.40;81.40;;;;;;5032886;28;20449;-81
2021/04/26 06:56:39;;;;;;;10.03;5.60;;;8.50;81.80;;;;;;5031251;28;20517;-82
2021/04/26 06:59:06;;;;;;;6.70;5.10;;;8.50;81.10;;;;;;5024782;28;20478;-81
2021/04/26 07:01:32;;;;;;;8.50;5.20;;;8.50;80.60;;;;;;5041065;28;20493;-83
2021/04/26 07:03:59;;;;;;;10.80;5.50;;;8.90;80.90;;;;;;5014582;28;21051;-78
2021/04/26 07:06:25;;;;;;;11.20;4.70;;;8.60;79.90;;;;;;5019106;28;20456;-85
2021/04/26 07:08:51;;;;;;;6.83;4.60;;;9.00;80.00;;;;;;5022243;28;20969;-84
2021/04/26 07:11:18;;;;;;;11.20;6.10;;;8.90;79.70;;;;;;5034917;28;20478;-85
2021/04/26 07:13:44;;;;;;;11.10;5.60;;;8.90;80.70;;;;;;5042317;28;20899;-84
2021/04/26 07:16:12;;;;;;;9.60;5.60;;;8.90;80.40;;;;;;5039921;28;20493;-85
2021/04/26 07:18:38;;;;;;;9.60;5.00;;;9.00;79.80;;;;;;5038764;28;20909;-84
2021/04/26 07:21:05;;;;;;;7.17;3.23;;;8.80;79.20;;;;;;5020179;28;20446;-84
2021/04/26 07:23:31;;;;;;;11.40;5.60;;;9.10;79.00;;;;;;5016771;28;20498;-86
2021/04/26 07:25:59;;;;;;;7.23;4.87;;;9.10;79.10;;;;;;5025343;28;20461;-86
2021/04/26 07:28:26;;;;;;;7.50;4.87;;;8.80;78.60;;;;;;5047984;28;20482;-86
2021/04/26 07:30:52;;;;;;;7.90;5.03;;;9.30;77.90;;;;;;5054992;28;20445;-86
2021/04/26 07:33:20;;;;;;;12.23;5.67;;;9.10;77.80;;;;;;5040957;28;21159;-86
2021/04/26 07:35:46;;;;;;;8.57;5.10;;;9.40;77.70;;;;;;5052944;28;20560;-84
2021/04/26 07:38:12;;;;;;;11.90;5.27;;;9.60;77.10;;;;;;5052068;28;20951;-86
2021/04/26 07:40:39;;;;;;;16.17;5.00;;;9.60;76.90;;;;;;5039357;28;20527;-86
2021/04/26 07:43:05;;;;;;;9.33;5.60;;;9.70;76.40;;;;;;5039486;28;20526;-85
2021/04/26 07:45:33;;;;;;;8.70;5.13;;;9.80;76.00;;;;;;5038492;28;20826;-84
2021/04/26 07:47:59;;;;;;;7.20;4.90;;;9.80;75.80;;;;;;5038278;28;20449;-86
2021/04/26 07:50:27;;;;;;;6.40;4.50;;;9.80;75.50;;;;;;5028960;28;20486;-85
2021/04/26 07:52:54;;;;;;;6.60;5.03;;;9.80;75.40;;;;;;5023910;28;20489;-85
2021/04/26 07:55:20;;;;;;;7.90;4.87;;;9.80;75.30;;;;;;5037179;28;20523;-85
2021/04/26 07:57:46;;;;;;;7.97;5.47;;;9.70;75.60;;;;;;5037005;28;20913;-85
2021/04/26 08:00:13;;;;;;;9.23;5.80;;;9.90;76.30;;;;;;5037426;28;20478;-85
2021/04/26 08:02:40;;;;;;;7.30;5.57;;;10.10;74.10;;;;;;5037605;28;20450;-86
2021/04/26 08:05:07;;;;;;;10.00;5.17;;;10.20;73.90;;;;;;5032468;28;20458;-85
2021/04/26 08:07:35;;;;;;;8.47;5.07;;;10.40;73.30;;;;;;5017607;28;20596;-85
2021/04/26 08:10:01;;;;;;;12.73;5.83;;;10.30;73.10;;;;;;5019174;28;20489;-85
2021/04/26 08:12:27;;;;;;;10.90;5.73;;;10.10;73.60;;;;;;5017314;28;21210;-86
2021/04/26 08:14:54;;;;;;;8.27;5.27;;;10.20;74.30;;;;;;5031721;28;20964;-85
2021/04/26 08:17:20;;;;;;;8.33;5.17;;;10.30;73.90;;;;;;5052122;28;20424;-85
2021/04/26 08:19:46;;;;;;;10.20;5.40;;;10.30;73.40;;;;;;5036294;28;20524;-81
2021/04/26 08:22:13;;;;;;;12.13;5.87;;;10.40;73.60;;;;;;5034522;28;20540;-82
2021/04/26 08:24:40;;;;;;;11.00;6.17;;;10.70;73.90;;;;;;5032621;28;20452;-84
2021/04/26 08:27:07;;;;;;;9.73;6.10;;;10.60;72.30;;;;;;5018359;28;20537;-82
2021/04/26 08:29:33;;;;;;;9.90;6.13;;;10.80;72.70;;;;;;5039944;28;20982;-82
2021/04/26 08:31:59;;;;;;;7.97;5.40;;;11.00;72.30;;;;;;5056199;28;20836;-84
2021/04/26 08:34:26;;;;;;;10.97;5.40;;;11.20;71.50;;;;;;5030456;28;20516;-84
2021/04/26 08:40:15;;;;;;;9.53;5.77;;;11.10;70.90;;;;;;5029169;28;20460;-82
2021/04/26 08:42:41;;;;;;;7.73;5.20;;;11.10;71.30;;;;;;5043085;28;20594;-81
2021/04/26 08:45:10;;;;;;;17.30;5.60;;;11.30;71.20;;;;;;5045143;28;20470;-83
2021/04/26 08:47:38;;;;;;;7.30;5.50;;;11.40;70.60;;;;;;5037748;28;20482;-83
2021/04/26 08:50:06;;;;;;;9.40;5.80;;;11.40;70.20;;;;;;5056094;28;20940;-80
2021/04/26 08:52:33;;;;;;;8.27;3.17;;;11.60;70.20;;;;;;5041805;28;20483;-82
2021/04/26 08:54:59;;;;;;;8.07;5.40;;;11.50;69.20;;;;;;5016565;28;21066;-78
2021/04/26 08:57:27;;;;;;;9.83;4.10;;;11.40;69.60;;;;;;5037624;28;20451;-78
2021/04/26 08:59:53;;;;;;;9.27;5.03;;;11.40;69.60;;;;;;5039049;28;20468;-77
2021/04/26 09:02:20;;;;;;;9.93;5.30;;;11.20;70.00;;;;;;5045244;28;20519;-77
2021/04/26 09:04:49;;;;;;;9.13;5.60;;;11.30;70.40;;;;;;5035471;28;20473;-77
2021/04/26 09:07:16;;;;;;;6.83;4.50;;;11.60;70.20;;;;;;5032751;28;20437;-77
2021/04/26 09:09:44;;;;;;;7.77;5.90;;;11.80;68.90;;;;;;5026713;28;20513;-77
2021/04/26 09:12:12;;;;;;;9.50;5.30;;;11.90;68.90;;;;;;5032820;28;20449;-77
2021/04/26 09:14:42;;;;;;;7.30;5.57;;;12.10;68.70;;;;;;5042952;28;20885;-78
2021/04/26 09:17:29;;;;;;;10.80;6.07;;;12.30;68.00;;;;;;5049890;28;20498;-78
2021/04/26 09:19:58;;;;;;;8.30;5.30;;;12.60;67.20;;;;;;5033688;28;20504;-78
2021/04/26 09:22:41;;;;;;;9.43;5.80;;;12.70;66.40;;;;;;5030307;28;20490;-77
2021/04/26 09:25:35;;;;;;;8.37;5.70;;;12.60;66.30;;;;;;5020089;28;20479;-78
2021/04/26 09:28:05;;;;;;;10.80;6.20;;;12.50;66.30;;;;;;5012758;28;21063;-77
2021/04/26 09:30:53;;;;;;;10.27;5.30;;;12.70;66.30;;;;;;5031117;28;20935;-77
2021/04/26 09:33:33;;;;;;;9.20;6.03;;;12.70;65.50;;;;;;5045643;28;20490;-77
2021/04/26 09:36:09;;;;;;;9.23;5.47;;;12.80;65.40;;;;;;5013535;28;20494;-78
2021/04/26 09:38:36;;;;;;;7.07;4.90;;;12.90;65.00;;;;;;5024890;28;20953;-78
2021/04/26 09:41:15;;;;;;;8.40;5.70;;;13.10;65.80;;;;;;5011785;28;20486;-78
2021/04/26 09:43:42;;;;;;;8.37;5.60;;;13.10;66.80;;;;;;5016104;28;20497;-78
2021/04/26 09:46:10;;;;;;;10.50;5.80;;;13.00;65.70;;;;;;5031040;28;20431;-78
2021/04/26 09:48:36;;;;;;;10.43;5.43;;;13.10;65.90;;;;;;5029323;28;20587;-78
2021/04/26 09:51:05;;;;;;;7.67;5.60;;;12.90;65.30;;;;;;5045938;28;20437;-78
2021/04/26 09:53:35;;;;;;;10.93;6.03;;;12.90;65.00;;;;;;5016180;28;20514;-78
2021/04/26 09:56:11;;;;;;;5.30;2.97;;;13.00;65.60;;;;;;5011822;28;20537;-78
2021/04/26 09:58:39;;;;;;;9.03;5.40;;;13.20;64.80;;;;;;5030483;28;20473;-78
2021/04/26 10:01:06;;;;;;;8.27;5.03;;;13.30;64.80;;;;;;5031142;28;20445;-78
2021/04/26 10:03:34;;;;;;;16.80;6.60;;;13.30;64.00;;;;;;5028037;28;20483;-84
2021/04/26 10:06:01;;;;;;;7.47;4.40;;;13.10;64.60;;;;;;5027642;28;20535;-77
2021/04/26 10:08:28;;;;;;;12.43;7.03;;;13.10;65.60;;;;;;5031028;28;20432;-77
2021/04/26 10:10:56;;;;;;;9.90;6.13;;;13.00;66.30;;;;;;5021920;28;20485;-78
2021/04/26 10:13:24;;;;;;;10.73;6.47;;;13.20;65.40;;;;;;5022802;28;20474;-78
2021/04/26 10:16:01;;;;;;;9.13;5.87;;;13.20;65.30;;;;;;5029464;28;20474;-77
2021/04/26 10:18:35;;;;;;;9.13;6.33;;;13.30;65.30;;;;;;5026960;28;20468;-81
2021/04/26 10:21:03;;;;;;;7.03;5.83;;;13.50;65.10;;;;;;5034305;28;20438;-80
2021/04/26 10:23:48;;;;;;;12.10;6.77;;;13.50;64.70;;;;;;5033623;28;20481;-83
2021/04/26 10:26:40;;;;;;;10.03;6.57;;;13.50;65.00;;;;;;5033779;28;20782;-81
2021/04/26 10:29:11;;;;;;;11.53;6.93;;;13.70;64.80;;;;;;5039766;28;20506;-80
2021/04/26 10:32:03;;;;;;;8.37;5.73;;;13.80;64.40;;;;;;5050896;28;20482;-77
2021/04/26 10:34:33;;;;;;;11.33;4.93;;;14.00;61.70;;;;;;5037065;28;20433;-80
2021/04/26 10:37:02;;;;;;;13.03;5.80;;;14.10;58.90;;;;;;5034653;28;20968;-84
2021/04/26 10:39:31;;;;;;;10.03;6.23;;;14.20;59.10;;;;;;5033180;28;20440;-83
2021/04/26 10:42:06;;;;;;;7.40;5.53;;;14.10;58.80;;;;;;5040222;28;20448;-83
2021/04/26 10:44:53;;;;;;;10.00;6.67;;;14.20;59.10;;;;;;5038333;28;20522;-81
2021/04/26 10:47:23;;;;;;;10.70;4.87;;;14.30;60.20;;;;;;5043970;28;20411;-81
2021/04/26 10:49:52;;;;;;;7.30;5.23;;;14.20;62.20;;;;;;5042927;28;20619;-82
2021/04/26 10:52:36;;;;;;;8.10;6.80;;;14.40;61.90;;;;;;5026702;28;20517;-80
2021/04/26 10:55:06;;;;;;;8.37;6.37;;;14.30;61.40;;;;;;5034953;28;20430;-80
2021/04/26 10:57:33;;;;;;;16.20;7.10;;;14.00;62.10;;;;;;5021769;28;20484;-80
2021/04/26 11:00:33;;;;;;;10.23;6.50;;;14.10;62.70;;;;;;5026140;28;20461;-80
2021/04/26 11:03:01;;;;;;;14.00;7.50;;;14.30;62.50;;;;;;5027141;28;20521;-81
2021/04/26 11:05:30;;;;;;;13.20;6.73;;;14.60;61.90;;;;;;5031653;28;20538;-81
2021/04/26 11:08:01;;;;;;;10.07;6.47;;;14.70;60.70;;;;;;5022561;28;20436;-81
2021/04/26 11:10:34;;;;;;;11.03;7.27;;;14.90;60.30;;;;;;5023474;28;20549;-81
2021/04/26 11:13:03;;;;;;;9.93;6.10;;;14.90;60.30;;;;;;5034069;28;20445;-81
2021/04/26 11:15:30;;;;;;;8.97;6.47;;;15.10;60.10;;;;;;5042403;28;20909;-81
2021/04/26 11:17:56;;;;;;;9.17;6.03;;;15.10;59.50;;;;;;5038556;28;20481;-81
2021/04/26 11:20:24;;;;;;;7.73;6.00;;;15.10;59.60;;;;;;5038089;28;20486;-80
2021/04/26 11:22:53;;;;;;;11.27;6.57;;;15.10;59.30;;;;;;5031200;28;21169;-80
2021/04/26 11:25:33;;;;;;;11.80;6.97;;;14.90;59.30;;;;;;5037116;28;20443;-82
2021/04/26 11:28:00;;;;;;;8.30;5.97;;;14.90;59.20;;;;;;5028285;28;20465;-82
2021/04/26 11:30:33;;;;;;;9.50;5.40;;;14.90;59.10;;;;;;5041276;28;20545;-86
2021/04/26 11:33:20;;;;;;;8.23;6.27;;;15.00;59.40;;;;;;5035869;28;20472;-82
2021/04/26 11:36:10;;;;;;;10.87;6.40;;;15.10;58.20;;;;;;5027740;28;20517;-89
2021/04/26 11:38:39;;;;;;;13.43;6.43;;;15.30;57.60;;;;;;5016056;28;20591;-79
2021/04/26 11:41:06;;;;;;;14.87;6.73;;;15.40;57.20;;;;;;5026185;28;20560;-82
2021/04/26 11:43:33;;;;;;;12.03;6.63;;;15.10;57.80;;;;;;5030834;28;20445;-82
2021/04/26 11:46:00;;;;;;;8.90;6.00;;;15.20;58.20;;;;;;5033972;28;20533;-81
2021/04/26 11:48:27;;;;;;;14.27;6.17;;;15.10;58.40;;;;;;5036468;28;20445;-82
2021/04/26 11:50:54;;;;;;;9.20;5.90;;;15.10;58.10;;;;;;5041175;28;20453;-82
2021/04/26 11:53:30;;;;;;;7.80;5.57;;;14.90;58.40;;;;;;5042344;28;20512;-82
2021/04/26 11:56:11;;;;;;;11.77;6.20;;;14.80;59.40;;;;;;5036419;28;20472;-82
2021/04/26 11:58:37;;;;;;;8.60;5.23;;;15.00;58.70;;;;;;5034368;28;20632;-82
2021/04/26 12:01:09;;;;;;;9.10;6.33;;;15.10;58.30;;;;;;5032899;28;20949;-81
2021/04/26 12:03:52;;;;;;;7.80;5.00;;;15.20;58.20;;;;;;5036671;28;20989;-81
2021/04/26 12:06:18;;;;;;;10.60;6.00;;;15.20;57.90;;;;;;5033496;28;20481;-81
2021/04/26 12:08:45;;;;;;;12.00;6.97;;;15.50;57.30;;;;;;5033759;28;20572;-82
2021/04/26 12:11:17;;;;;;;8.13;5.30;;;15.60;56.80;;;;;;5036319;28;20488;-81
2021/04/26 12:13:44;;;;;;;10.13;5.90;;;15.40;56.60;;;;;;5036315;28;20543;-82
2021/04/26 12:16:24;;;;;;;8.47;5.80;;;15.40;57.10;;;;;;5034811;28;20461;-81
2021/04/26 12:18:57;;;;;;;8.67;5.60;;;15.60;56.10;;;;;;5038056;28;20421;-81
2021/04/26 12:21:24;;;;;;;7.63;5.47;;;15.80;56.60;;;;;;5039175;28;20454;-81
2021/04/26 12:23:51;;;;;;;8.47;5.60;;;16.00;55.80;;;;;;5038094;28;20548;-82
2021/04/26 12:26:18;;;;;;;7.00;4.33;;;16.10;54.90;;;;;;5037620;28;20573;-82
2021/04/26 12:28:46;;;;;;;7.47;5.23;;;15.90;54.20;;;;;;5041873;28;20485;-82
2021/04/26 12:31:19;;;;;;;8.77;5.37;;;15.80;54.80;;;;;;5055422;28;20465;-82
2021/04/26 12:33:46;;;;;;;5.87;4.57;;;15.80;54.20;;;;;;5059802;28;20469;-82
2021/04/26 12:36:13;;;;;;;12.50;5.77;;;15.80;54.10;;;;;;5058649;28;20939;-82
2021/04/26 12:38:47;;;;;;;9.70;5.90;;;15.90;54.10;;;;;;5018202;28;20455;-82
2021/04/26 12:41:14;;;;;;;11.37;4.47;;;15.90;53.80;;;;;;5018923;28;20505;-82
2021/04/26 12:43:43;;;;;;;7.10;5.67;;;15.80;54.20;;;;;;5018486;28;20471;-82
2021/04/26 12:46:12;;;;;;;8.13;5.30;;;16.00;53.80;;;;;;5035789;28;20926;-82
2021/04/26 12:48:40;;;;;;;9.10;4.27;;;16.20;53.30;;;;;;5046450;28;20424;-82
2021/04/26 12:51:08;;;;;;;7.63;5.13;;;16.20;52.70;;;;;;5059877;28;20802;-82
2021/04/26 12:53:36;;;;;;;8.40;5.40;;;16.20;52.80;;;;;;5061771;28;20477;-81
2021/04/26 12:56:16;;;;;;;7.10;3.90;;;16.20;52.20;;;;;;5063879;28;20518;-82
2021/04/26 12:58:45;;;;;;;11.23;6.57;;;16.10;53.00;;;;;;5055324;28;20462;-82
2021/04/26 13:01:22;;;;;;;10.30;4.80;;;15.80;53.80;;;;;;5039865;28;20439;-83
2021/04/26 13:03:56;;;;;;;8.20;5.37;;;16.00;53.80;;;;;;5039841;28;20576;-81